Relevés horaires Elsenborn (Belgique)


Relevés horaires à Elsenborn - Mercredi 03 Sept. 2014
Heure UTC1 Température [°C] Vent [km/h] Hum. [%] Pres.4 [hPa] Visi. [Km] Nébu. [octa] Préc.5 [mm] Cond.
2m. Res. Ros. Dir.2 Vit. Moy. Raf.3
23:00 12.5 12.5 11.0 NNO 3.7 3.7 9.3 91 1020.9(-0.6/3h) 11 -- -- --
22:00 12.3 12.3 11.0 E 3.7 5.6 7.4 92 1021.2(-0.3/3h) 11 -- -- --
21:00 12.1 12.1 10.9 E 3.7 7.4 11.1 92 1021.4(-0.1/3h) 10 -- -- --
20:00 12.0 11.9 10.3 E 5.6 7.4 11.1 89 1021.7(0.3/3h) 14 -- -- --
19:00 12.6 12.6 10.0 E 5.6 7.4 11.1 84 1021.5(0.2/3h) 19 -- -- --
18:00 13.0 12.6 10.6 E 7.4 11.1 16.7 85 1021.4(0.0/3h) 19 -- 0/0h
--
17:00 13.1 12.8 10.3 E 7.4 9.3 14.8 83 1021(-0.3/3h) 30 -- -- --
16:00 14.1 13.9 10.4 E 7.4 9.3 14.8 78 1020.7(-0.4/3h) 35 -- -- --
15:00 14.8 14.5 10.2 ENE 9.3 11.1 16.7 74 1020.9(-0.6/3h) 30 2/8 -- --
14:00 16.5 16.5 10.1 ENE 9.3 11.1 16.7 66 1020.7(-0.6/3h) 30 1/8 -- --
13:00 17.2 17.2 10.6 ENE 9.3 9.3 16.7 65 1020.5(-0.6/3h) 30 1/8 -- --
12:00 16.2 16.2 8.3 E 7.4 9.3 16.7 59 1021.2(-0.6/3h) 30 1/8 0/0h
--
11:00 15.3 15.1 9.1 NE 9.3 9.3 16.7 66 1021.5(-0.5/3h) 25 1/8 -- --
10:00 14.8 14.5 9.1 ENE 9.3 9.3 14.8 69 1022(-0.2/3h) 25 1/8 -- --
09:00 14.0 13.8 8.9 ENE 7.4 7.4 13.0 71 1022.5(0.0/3h) 25 3/8 -- --
08:00 13.6 13.6 8.9 E 5.6 7.4 11.1 73 1022.5(0.1/3h) 25 3/8 -- --
07:00 12.3 12.2 9.4 E 5.6 5.6 9.3 82 1022.7(0.2/3h) 20 3/8 -- --
06:00 11.6 11.4 9.8 E 5.6 5.6 9.3 89 1023(0.1/3h) 10 7/8 0/0h
--
05:00 11.6 11.6 11.1 NNO 1.9 3.7 5.6 97 1022.9(-0.3/3h) 10 7/8 -- --
04:00 11.5 11.5 10.8 NNO 1.9 5.6 9.3 95 1022.7(-0.6/3h) 8 8/8 -- --
03:00 12.1 12.1 11.4 E 3.7 5.6 9.3 95 1022.9(-0.5/3h) 9 -- -- --
02:00 12.3 12.3 11.5 E 3.7 5.6 9.3 95 1022.9(-0.4/3h) 9 -- -- --
01:00 12.6 12.6 11.7 E 3.7 5.6 9.3 94 1023.2(-0.5/3h) 10 -- -- --
00:00 12.3 12.3 11.5 ENE 3.7 5.6 11.1 95 1023.4(-0.4/3h) 6 -- 0/0h
--

1 Coordinated Universal Time. Actuellement il est 14:00 locale et 12:00 UTC.

2 Le vent souffle depuis la direction indiquée vers la direction oposée.

3 Les rafales max. sont disponible 40 min après l'heure du relevé.

4 Pour les stations d'altitude (plus de 600m) le géopotentiel du niveau le plus proche de la pression obligatoire est indiqué.

5 Les stations disposant d'un diffuseur peuvent indiquer "trace". Cela signifie que des précipitations ont touchés le sol mais que la quantité est inférieure à 0.1 mm.

Récapitulatif de la journée
Température [°C] Vent [km/h] Ensoleillement4 [h] Precipitations totale5 [mm] Pression [Hpa]
Min1 Max.2 Moy.3 Max. Min Max.
10.6 17.5 7.4 16.7 0 h 0 min 0 1020.5 1023.4

1 Température minimale relevée entre 18:00 UTC la veille et 18:00 UTC le jour donné.

2 Température maximale relevée entre 06:00 UTC le jour donné et 06:00 UTC le lendemain.

3 Vent moyen de la journée basé sur les relevés horaires.

4 Ensoleillement en heures relevé entre 06:00 UTC la veille et 06:00 UTC le jour donné.

5 Précipitations totales tombées entre 06:00 UTC la jour donné et 06:00 UTC le lendemain.

Graphiques horaires